createdAt,value
2023-05-10T00:02:08.092Z,13.21
2023-05-10T00:04:37.959Z,13.18
2023-05-10T00:07:07.840Z,13.19
2023-05-10T00:09:37.473Z,13.20
2023-05-10T00:12:09.905Z,13.20
2023-05-10T00:14:39.664Z,13.20
2023-05-10T00:17:09.329Z,13.22
2023-05-10T00:19:39.036Z,13.21
2023-05-10T00:22:08.753Z,13.23
2023-05-10T00:24:38.390Z,13.26
2023-05-10T00:27:10.752Z,13.27
2023-05-10T00:29:40.505Z,13.29
2023-05-10T00:32:10.411Z,13.30
2023-05-10T00:34:40.127Z,13.32
2023-05-10T00:37:09.834Z,13.33
2023-05-10T00:39:39.535Z,13.33
2023-05-10T00:42:11.777Z,13.36
2023-05-10T00:44:41.903Z,13.36
2023-05-10T00:47:11.942Z,13.35
2023-05-10T00:49:41.698Z,13.37
2023-05-10T00:52:12.023Z,13.38
2023-05-10T00:54:41.701Z,13.36
2023-05-10T00:57:14.231Z,13.34
2023-05-10T00:59:44.205Z,13.33
2023-05-10T01:02:14.268Z,13.30
2023-05-10T01:04:44.420Z,13.30
2023-05-10T01:07:14.354Z,13.32
2023-05-10T01:09:44.026Z,13.35
2023-05-10T01:12:17.527Z,13.35
2023-05-10T01:14:47.490Z,13.35
2023-05-10T01:17:17.504Z,13.35
2023-05-10T01:19:47.216Z,13.35
2023-05-10T01:22:36.994Z,13.37
2023-05-10T01:25:26.310Z,13.37
2023-05-10T01:28:26.659Z,13.36
2023-05-10T01:31:12.974Z,13.33
2023-05-10T01:33:48.653Z,13.31
2023-05-10T01:36:27.257Z,13.32
2023-05-10T01:39:01.389Z,13.33
2023-05-10T01:41:35.093Z,13.32
2023-05-10T01:44:11.236Z,13.32
2023-05-10T01:46:42.909Z,13.31
2023-05-10T01:49:19.864Z,13.30
2023-05-10T01:51:55.805Z,13.30
2023-05-10T01:54:26.527Z,13.31
2023-05-10T01:57:00.967Z,13.36
2023-05-10T01:59:34.640Z,13.35
2023-05-10T02:02:05.439Z,13.33
2023-05-10T02:04:39.387Z,13.33
2023-05-10T02:07:09.884Z,13.31
2023-05-10T02:09:40.539Z,13.29
2023-05-10T02:12:11.208Z,13.31
2023-05-10T02:14:41.386Z,13.30
2023-05-10T02:17:11.994Z,13.32
2023-05-10T02:19:46.456Z,13.31
2023-05-10T02:22:16.893Z,13.32
2023-05-10T02:24:47.786Z,13.31
2023-05-10T02:27:18.366Z,13.32
2023-05-10T02:29:48.508Z,13.34
2023-05-10T02:32:20.171Z,13.34
2023-05-10T02:34:53.140Z,13.36
2023-05-10T02:37:23.894Z,13.35
2023-05-10T02:39:54.920Z,13.34
2023-05-10T02:42:28.129Z,13.33
2023-05-10T02:45:00.114Z,13.28
2023-05-10T02:47:29.947Z,13.27
2023-05-10T02:50:02.423Z,13.26
2023-05-10T02:52:42.523Z,13.24
2023-05-10T02:55:16.103Z,13.22
2023-05-10T02:57:57.426Z,13.19
2023-05-10T03:00:28.331Z,13.16
2023-05-10T03:02:58.211Z,13.18
2023-05-10T03:05:31.553Z,13.18
2023-05-10T03:08:05.293Z,13.13
2023-05-10T03:10:36.859Z,13.10
2023-05-10T03:13:13.855Z,13.09
2023-05-10T03:15:49.578Z,13.09
2023-05-10T03:18:23.456Z,13.10
2023-05-10T03:21:02.088Z,13.10
2023-05-10T03:23:39.558Z,13.09
2023-05-10T03:26:10.008Z,13.08
2023-05-10T03:28:40.349Z,13.03
2023-05-10T03:31:10.398Z,13.02
2023-05-10T03:33:49.998Z,13.00
2023-05-10T03:36:27.638Z,12.98
2023-05-10T03:38:58.593Z,12.97
2023-05-10T03:41:28.800Z,12.97
2023-05-10T03:43:58.584Z,12.98
2023-05-10T03:46:28.469Z,12.97
2023-05-10T03:48:58.269Z,12.91
2023-05-10T03:51:32.205Z,12.93
2023-05-10T03:54:02.277Z,12.95
2023-05-10T03:56:32.047Z,12.96
2023-05-10T03:59:01.989Z,12.99
2023-05-10T04:01:31.829Z,12.97
2023-05-10T04:04:01.510Z,12.99
2023-05-10T04:06:34.344Z,12.99
2023-05-10T04:09:05.441Z,12.98
2023-05-10T04:11:35.211Z,12.95
2023-05-10T04:14:04.892Z,12.94
2023-05-10T04:16:34.564Z,12.91
2023-05-10T04:19:04.904Z,12.89
2023-05-10T04:21:37.125Z,12.90
2023-05-10T04:24:07.606Z,12.91
2023-05-10T04:26:37.280Z,12.88
2023-05-10T04:29:06.991Z,12.87
2023-05-10T04:31:37.426Z,12.85
2023-05-10T04:34:07.098Z,12.80
2023-05-10T04:36:39.345Z,12.81
2023-05-10T04:39:10.135Z,12.82
2023-05-10T04:41:41.647Z,12.80
2023-05-10T04:44:11.360Z,12.79
2023-05-10T04:46:41.079Z,12.81
2023-05-10T04:49:10.846Z,12.80
2023-05-10T04:51:43.090Z,12.80
2023-05-10T04:54:12.804Z,12.79
2023-05-10T04:56:42.480Z,12.83
2023-05-10T04:59:12.217Z,12.84
2023-05-10T05:01:41.932Z,12.84
2023-05-10T05:04:11.634Z,12.87
2023-05-10T05:06:44.517Z,12.88
2023-05-10T05:09:14.210Z,12.91
2023-05-10T05:11:44.041Z,12.91
2023-05-10T05:14:13.723Z,12.93
2023-05-10T05:16:43.467Z,12.94
2023-05-10T05:19:13.249Z,12.95
2023-05-10T05:21:45.743Z,12.94
2023-05-10T05:24:15.515Z,12.95
2023-05-10T05:26:45.302Z,12.93
2023-05-10T05:29:14.977Z,12.96
2023-05-10T05:31:44.754Z,12.98
2023-05-10T05:34:14.480Z,12.98
2023-05-10T05:36:46.791Z,13.01
2023-05-10T05:39:16.605Z,13.02
2023-05-10T05:41:47.228Z,13.04
2023-05-10T05:44:16.974Z,13.07
2023-05-10T05:46:46.580Z,13.04
2023-05-10T05:49:16.284Z,13.04
2023-05-10T05:51:50.610Z,13.06
2023-05-10T05:54:20.443Z,13.08
2023-05-10T05:56:50.114Z,13.10
2023-05-10T05:59:19.780Z,13.11
2023-05-10T06:01:49.528Z,13.15
2023-05-10T06:04:19.672Z,13.18
2023-05-10T06:06:51.971Z,13.22
2023-05-10T06:09:21.963Z,13.25
2023-05-10T06:11:51.736Z,13.26
2023-05-10T06:14:21.430Z,13.26
2023-05-10T06:16:51.173Z,13.27
2023-05-10T06:19:20.854Z,13.30
2023-05-10T06:21:53.910Z,13.29
2023-05-10T06:24:23.749Z,13.29
2023-05-10T06:26:53.430Z,13.31
2023-05-10T06:29:23.214Z,13.33
2023-05-10T06:31:52.978Z,13.35
2023-05-10T06:34:22.775Z,13.35
2023-05-10T06:36:55.136Z,13.34
2023-05-10T06:39:24.904Z,13.38
2023-05-10T06:41:55.466Z,13.37
2023-05-10T06:44:25.211Z,13.40
2023-05-10T06:46:56.344Z,13.41
2023-05-10T06:49:26.070Z,13.47
2023-05-10T06:51:59.411Z,13.49
2023-05-10T06:54:29.189Z,13.53
2023-05-10T06:56:59.000Z,13.61
2023-05-10T06:59:28.752Z,13.65
2023-05-10T07:01:58.521Z,13.68
2023-05-10T07:04:28.826Z,13.69
2023-05-10T07:07:01.126Z,13.69
2023-05-10T07:09:31.365Z,13.73
2023-05-10T07:12:01.125Z,13.74
2023-05-10T07:14:30.865Z,13.68
2023-05-10T07:17:00.559Z,13.70
2023-05-10T07:19:30.502Z,13.69
2023-05-10T07:22:02.833Z,13.69
2023-05-10T07:24:32.620Z,13.71
2023-05-10T07:27:02.376Z,13.73
2023-05-10T07:29:32.275Z,13.75
2023-05-10T07:32:02.322Z,13.79
2023-05-10T07:34:32.824Z,13.80
2023-05-10T07:37:05.516Z,13.79
2023-05-10T07:39:35.557Z,13.76
2023-05-10T07:42:05.238Z,13.77
2023-05-10T07:44:34.914Z,13.77
2023-05-10T07:47:04.606Z,13.80
2023-05-10T07:49:34.396Z,13.84
2023-05-10T07:52:07.072Z,13.83
2023-05-10T07:54:36.788Z,13.83
2023-05-10T07:57:06.546Z,13.84
2023-05-10T07:59:36.407Z,13.79
2023-05-10T08:02:06.070Z,13.78
2023-05-10T08:04:35.869Z,13.71
2023-05-10T08:07:08.382Z,13.66
2023-05-10T08:09:38.154Z,13.67
2023-05-10T08:12:08.837Z,13.71
2023-05-10T08:14:38.935Z,13.75
2023-05-10T08:17:08.625Z,13.74
2023-05-10T08:19:38.410Z,13.79
2023-05-10T08:22:11.328Z,13.78
2023-05-10T08:24:43.055Z,13.85
2023-05-10T08:27:12.837Z,13.87
2023-05-10T08:29:50.212Z,13.89
2023-05-10T08:32:20.475Z,13.92
2023-05-10T08:34:50.118Z,14.00
2023-05-10T08:37:22.509Z,14.07
2023-05-10T08:39:52.228Z,14.12
2023-05-10T08:42:23.978Z,14.05
2023-05-10T08:44:54.039Z,14.08
2023-05-10T08:47:24.317Z,14.11
2023-05-10T08:49:54.480Z,14.18
2023-05-10T08:52:28.963Z,14.23
2023-05-10T08:54:58.756Z,14.28
2023-05-10T08:57:29.074Z,14.36
2023-05-10T08:59:58.962Z,14.44
2023-05-10T09:02:29.076Z,14.53
2023-05-10T09:04:59.048Z,14.55
2023-05-10T09:07:31.550Z,14.69
2023-05-10T09:10:01.976Z,14.69
2023-05-10T09:12:31.826Z,14.73
2023-05-10T09:15:02.548Z,14.75
2023-05-10T09:17:33.193Z,14.78
2023-05-10T09:20:03.805Z,14.83
2023-05-10T09:22:36.810Z,14.89
2023-05-10T09:25:12.148Z,14.91
2023-05-10T09:27:42.636Z,14.88
2023-05-10T09:30:13.188Z,14.85
2023-05-10T09:32:44.303Z,14.78
2023-05-10T09:35:15.011Z,14.80
2023-05-10T09:37:48.908Z,14.82
2023-05-10T09:40:19.717Z,14.80
2023-05-10T09:42:55.847Z,14.81
2023-05-10T09:45:26.396Z,14.83
2023-05-10T09:47:56.809Z,14.80
2023-05-10T09:50:26.969Z,14.73
2023-05-10T09:53:01.280Z,14.65
2023-05-10T09:55:42.743Z,14.56
2023-05-10T09:58:13.323Z,14.52
2023-05-10T10:00:44.617Z,14.44
2023-05-10T10:03:17.165Z,14.39
2023-05-10T10:05:48.381Z,14.39
2023-05-10T10:08:21.654Z,14.41
2023-05-10T10:10:51.557Z,14.45
2023-05-10T10:13:21.368Z,14.57
2023-05-10T10:15:52.291Z,14.65
2023-05-10T10:18:24.945Z,14.73
2023-05-10T10:20:55.560Z,14.81
2023-05-10T10:23:28.044Z,14.85
2023-05-10T10:25:58.832Z,14.93
2023-05-10T10:28:34.473Z,14.91
2023-05-10T10:31:15.460Z,15.01
2023-05-10T10:33:58.484Z,14.96
2023-05-10T10:36:28.829Z,14.96
2023-05-10T10:39:04.281Z,14.93
2023-05-10T10:41:36.472Z,14.97
2023-05-10T10:44:27.883Z,15.00
2023-05-10T10:47:07.016Z,15.05
2023-05-10T10:49:41.727Z,15.09
2023-05-10T10:52:18.938Z,15.10
2023-05-10T10:54:57.294Z,15.15
2023-05-10T10:57:27.734Z,15.13
2023-05-10T11:00:22.870Z,15.10
2023-05-10T11:02:54.375Z,15.13
2023-05-10T11:05:29.008Z,15.08
2023-05-10T11:08:00.048Z,15.04
2023-05-10T11:10:32.680Z,15.04
2023-05-10T11:13:03.998Z,15.03
2023-05-10T11:15:34.724Z,14.93
2023-05-10T11:18:20.915Z,14.93
2023-05-10T11:20:54.695Z,14.95
2023-05-10T11:23:24.723Z,14.97
2023-05-10T11:25:58.121Z,14.98
2023-05-10T11:28:28.038Z,14.89
2023-05-10T11:30:58.605Z,14.95
2023-05-10T11:33:28.306Z,15.05
2023-05-10T11:35:57.952Z,15.10
2023-05-10T11:38:27.695Z,15.13
2023-05-10T11:40:59.999Z,15.19
2023-05-10T11:43:31.957Z,15.28
2023-05-10T11:46:01.713Z,15.25
2023-05-10T11:48:33.592Z,15.24
2023-05-10T11:51:04.828Z,15.22
2023-05-10T11:53:36.164Z,15.25
2023-05-10T11:56:13.040Z,15.25
2023-05-10T11:58:43.481Z,15.30
2023-05-10T12:01:13.494Z,15.37
2023-05-10T12:03:44.259Z,15.42
2023-05-10T12:06:14.227Z,15.46
2023-05-10T12:08:48.354Z,15.52
2023-05-10T12:11:22.049Z,15.57
2023-05-10T12:13:51.952Z,15.60
2023-05-10T12:16:23.860Z,15.61
2023-05-10T12:18:54.691Z,15.68
2023-05-10T12:21:25.005Z,15.71
2023-05-10T12:23:56.550Z,15.74
2023-05-10T12:26:29.903Z,15.75
2023-05-10T12:29:15.019Z,15.77
2023-05-10T12:31:56.205Z,15.74
2023-05-10T12:34:30.060Z,15.76
2023-05-10T12:36:59.790Z,15.74
2023-05-10T12:39:29.518Z,15.74
2023-05-10T12:42:01.871Z,15.72
2023-05-10T12:44:31.626Z,15.64
2023-05-10T12:47:01.290Z,15.68
2023-05-10T12:49:31.056Z,15.76
2023-05-10T12:52:00.817Z,15.75
2023-05-10T12:54:30.591Z,15.83
2023-05-10T12:57:02.881Z,15.86
2023-05-10T12:59:32.583Z,15.88
2023-05-10T13:02:02.242Z,15.94
2023-05-10T13:04:32.009Z,16.01
2023-05-10T13:07:01.788Z,16.11
2023-05-10T13:09:32.159Z,16.18
2023-05-10T13:12:04.681Z,16.23
2023-05-10T13:14:35.167Z,16.33
2023-05-10T13:17:05.124Z,16.40
2023-05-10T13:19:34.967Z,16.47
2023-05-10T13:22:04.739Z,16.47
2023-05-10T13:24:34.381Z,16.43
2023-05-10T13:27:06.826Z,16.48
2023-05-10T13:29:36.570Z,16.48
2023-05-10T13:32:06.338Z,16.48
2023-05-10T13:34:36.798Z,16.53
2023-05-10T13:37:06.492Z,16.59
2023-05-10T13:39:38.590Z,16.75
2023-05-10T13:42:10.946Z,16.87
2023-05-10T13:44:41.141Z,16.90
2023-05-10T13:47:11.451Z,17.01
2023-05-10T13:49:41.101Z,17.01
2023-05-10T13:52:11.240Z,17.09
2023-05-10T13:54:40.964Z,17.02
2023-05-10T13:57:15.017Z,16.98
2023-05-10T13:59:44.756Z,16.98
2023-05-10T14:02:14.565Z,17.01
2023-05-10T14:04:44.360Z,17.02
2023-05-10T14:07:14.049Z,17.06
2023-05-10T14:09:43.733Z,17.19
2023-05-10T14:12:16.447Z,17.27
2023-05-10T14:14:46.356Z,17.30
2023-05-10T14:17:16.070Z,17.28
2023-05-10T14:19:45.705Z,17.17
2023-05-10T14:22:15.481Z,17.14
2023-05-10T14:24:47.806Z,16.97
2023-05-10T14:27:20.606Z,16.92
2023-05-10T14:29:51.150Z,16.86
2023-05-10T14:32:21.061Z,16.80
2023-05-10T14:34:50.828Z,16.70
2023-05-10T14:37:20.499Z,16.72
2023-05-10T14:39:50.181Z,16.72
2023-05-10T14:42:22.772Z,16.74
2023-05-10T14:44:52.501Z,16.78
2023-05-10T14:47:22.285Z,16.85
2023-05-10T14:49:51.998Z,16.93
2023-05-10T14:52:21.688Z,17.02
2023-05-10T14:54:51.545Z,17.13
2023-05-10T14:57:23.802Z,17.23
2023-05-10T14:59:53.503Z,17.30
2023-05-10T15:02:23.603Z,17.37
2023-05-10T15:04:53.722Z,17.42
2023-05-10T15:07:23.852Z,17.37
2023-05-10T15:09:54.113Z,17.46
2023-05-10T15:12:26.409Z,17.63
2023-05-10T15:14:56.200Z,17.70
2023-05-10T15:17:26.063Z,17.73
2023-05-10T15:19:55.842Z,17.76
2023-05-10T15:22:25.786Z,17.76
2023-05-10T15:24:55.726Z,17.77
2023-05-10T15:27:28.073Z,17.82
2023-05-10T15:29:58.004Z,17.86
2023-05-10T15:32:28.163Z,17.82
2023-05-10T15:34:58.262Z,17.80
2023-05-10T15:37:28.674Z,17.81
2023-05-10T15:40:04.183Z,17.82
2023-05-10T15:42:37.250Z,17.76
2023-05-10T15:45:12.639Z,17.77
2023-05-10T15:47:43.067Z,17.79
2023-05-10T15:50:15.765Z,17.75
2023-05-10T15:52:45.665Z,17.78
2023-05-10T15:55:16.240Z,17.77
2023-05-10T15:57:49.076Z,17.70
2023-05-10T16:00:19.629Z,17.69
2023-05-10T16:02:49.526Z,17.56
2023-05-10T16:05:19.759Z,17.57
2023-05-10T16:07:49.704Z,17.53
2023-05-10T16:10:19.593Z,17.50
2023-05-10T16:12:51.907Z,17.47
2023-05-10T16:15:21.872Z,17.41
2023-05-10T16:17:51.698Z,17.34
2023-05-10T16:20:21.399Z,17.28
2023-05-10T16:22:51.060Z,17.11
2023-05-10T16:25:21.174Z,17.01
2023-05-10T16:27:53.661Z,16.84
2023-05-10T16:30:24.552Z,16.82
2023-05-10T16:32:54.440Z,16.73
2023-05-10T16:35:24.235Z,16.72
2023-05-10T16:37:54.063Z,16.68
2023-05-10T16:40:24.123Z,16.66
2023-05-10T16:42:56.388Z,16.61
2023-05-10T16:45:27.041Z,16.54
2023-05-10T16:47:57.637Z,16.42
2023-05-10T16:50:27.380Z,16.31
2023-05-10T16:52:57.008Z,16.17
2023-05-10T16:55:26.988Z,16.06
2023-05-10T16:58:01.007Z,15.95
2023-05-10T17:00:30.814Z,15.82
2023-05-10T17:03:00.880Z,15.72
2023-05-10T17:05:30.722Z,15.58
2023-05-10T17:08:00.404Z,15.50
2023-05-10T17:10:30.127Z,15.41
2023-05-10T17:13:03.087Z,15.30
2023-05-10T17:15:32.850Z,15.25
2023-05-10T17:18:02.567Z,15.19
2023-05-10T17:20:32.284Z,15.19
2023-05-10T17:23:03.406Z,15.14
2023-05-10T17:25:33.221Z,15.09
2023-05-10T17:28:05.648Z,15.02
2023-05-10T17:30:35.409Z,14.97
2023-05-10T17:33:05.437Z,14.98
2023-05-10T17:35:35.426Z,14.99
2023-05-10T17:38:05.477Z,14.98
2023-05-10T17:40:35.593Z,15.04
2023-05-10T17:43:08.129Z,15.10
2023-05-10T17:45:40.317Z,15.08
2023-05-10T17:48:11.552Z,15.09
2023-05-10T17:50:41.574Z,15.06
2023-05-10T17:53:11.232Z,15.03
2023-05-10T17:55:43.871Z,15.01
2023-05-10T17:58:16.398Z,15.01
2023-05-10T18:00:46.484Z,14.99
2023-05-10T18:03:16.479Z,15.03
2023-05-10T18:05:46.238Z,15.04
2023-05-10T18:08:22.993Z,15.04
2023-05-10T18:10:52.747Z,15.05
2023-05-10T18:13:25.782Z,15.05
2023-05-10T18:15:55.785Z,15.01
2023-05-10T18:18:25.717Z,14.96
2023-05-10T18:20:57.791Z,14.92
2023-05-10T18:23:27.773Z,14.91
2023-05-10T18:25:57.722Z,14.88
2023-05-10T18:28:30.304Z,14.78
2023-05-10T18:31:00.499Z,14.70
2023-05-10T18:33:30.182Z,14.62
2023-05-10T18:36:00.053Z,14.58
2023-05-10T18:38:29.980Z,14.53
2023-05-10T18:41:00.282Z,14.52
2023-05-10T18:43:34.120Z,14.55
2023-05-10T18:46:03.915Z,14.52
2023-05-10T18:48:33.746Z,14.55
2023-05-10T18:51:03.433Z,14.55
2023-05-10T18:53:33.923Z,14.56
2023-05-10T18:56:03.630Z,14.58
2023-05-10T18:58:36.695Z,14.57
2023-05-10T19:01:07.147Z,14.53
2023-05-10T19:03:38.994Z,14.54
2023-05-10T19:06:09.387Z,14.53
2023-05-10T19:08:39.179Z,14.54
2023-05-10T19:11:08.933Z,14.52
2023-05-10T19:13:41.423Z,14.53
2023-05-10T19:16:15.594Z,14.50
2023-05-10T19:18:46.032Z,14.47
2023-05-10T19:21:16.820Z,14.47
2023-05-10T19:23:48.276Z,14.47
2023-05-10T19:26:18.010Z,14.47
2023-05-10T19:28:50.500Z,14.45
2023-05-10T19:31:20.521Z,14.43
2023-05-10T19:33:50.665Z,14.44
2023-05-10T19:36:20.295Z,14.43
2023-05-10T19:38:49.988Z,14.43
2023-05-10T19:41:19.824Z,14.39
2023-05-10T19:43:53.137Z,14.37
2023-05-10T19:46:23.519Z,14.36
2023-05-10T19:48:53.316Z,14.35
2023-05-10T19:51:23.163Z,14.35
2023-05-10T19:53:52.885Z,14.33
2023-05-10T19:56:22.554Z,14.31
2023-05-10T19:58:54.938Z,14.30
2023-05-10T20:01:24.797Z,14.28
2023-05-10T20:03:55.053Z,14.24
2023-05-10T20:06:24.753Z,14.22
2023-05-10T20:08:54.375Z,14.19
2023-05-10T20:11:24.369Z,14.15
2023-05-10T20:13:57.059Z,14.11
2023-05-10T20:16:27.030Z,14.07
2023-05-10T20:18:57.254Z,14.06
2023-05-10T20:21:27.391Z,14.04
2023-05-10T20:23:58.981Z,14.03
2023-05-10T20:26:29.068Z,13.99
2023-05-10T20:29:01.303Z,13.98
2023-05-10T20:31:31.086Z,13.97
2023-05-10T20:34:00.760Z,13.95
2023-05-10T20:36:31.338Z,13.90
2023-05-10T20:39:01.104Z,13.88
2023-05-10T20:41:30.792Z,13.83
2023-05-10T20:44:03.265Z,13.80
2023-05-10T20:46:33.175Z,13.77
2023-05-10T20:49:03.021Z,13.74
2023-05-10T20:51:33.475Z,13.71
2023-05-10T20:54:04.469Z,13.68
2023-05-10T20:56:35.074Z,13.65
2023-05-10T20:59:07.362Z,13.63
2023-05-10T21:01:37.168Z,13.61
2023-05-10T21:04:06.893Z,13.57
2023-05-10T21:06:36.631Z,13.55
2023-05-10T21:09:06.636Z,13.56
2023-05-10T21:11:38.493Z,13.53
2023-05-10T21:14:10.723Z,13.49
2023-05-10T21:16:40.628Z,13.47
2023-05-10T21:19:10.374Z,13.46
2023-05-10T21:21:40.140Z,13.40
2023-05-10T21:24:10.429Z,13.33
2023-05-10T21:26:40.082Z,13.33
2023-05-10T21:29:12.812Z,13.30
2023-05-10T21:31:42.530Z,13.25
2023-05-10T21:34:14.272Z,13.26
2023-05-10T21:36:43.924Z,13.24
2023-05-10T21:39:14.062Z,13.22
2023-05-10T21:41:44.482Z,13.22
2023-05-10T21:44:16.801Z,13.21
2023-05-10T21:46:46.576Z,13.19
2023-05-10T21:49:16.243Z,13.18
2023-05-10T21:51:45.879Z,13.15
2023-05-10T21:54:15.545Z,13.15
2023-05-10T21:56:45.191Z,13.15
2023-05-10T21:59:18.161Z,13.15
2023-05-10T22:01:47.939Z,13.13
2023-05-10T22:04:17.609Z,13.13
2023-05-10T22:06:47.966Z,13.12
2023-05-10T22:09:17.705Z,13.11
2023-05-10T22:11:48.728Z,13.06
2023-05-10T22:14:21.063Z,13.01
2023-05-10T22:16:50.823Z,12.96
2023-05-10T22:19:20.495Z,12.93
2023-05-10T22:21:50.101Z,12.91
2023-05-10T22:24:19.729Z,12.88
2023-05-10T22:26:49.437Z,12.86
2023-05-10T22:29:21.702Z,12.88
2023-05-10T22:31:51.526Z,12.88
2023-05-10T22:34:21.293Z,12.89
2023-05-10T22:36:51.062Z,12.93
2023-05-10T22:39:20.712Z,12.92
2023-05-10T22:41:50.494Z,12.91
2023-05-10T22:44:22.784Z,12.87
2023-05-10T22:46:52.614Z,12.86
2023-05-10T22:49:22.471Z,12.84
2023-05-10T22:51:52.423Z,12.82
2023-05-10T22:54:22.095Z,12.79
2023-05-10T22:56:51.789Z,12.75
2023-05-10T22:59:24.416Z,12.69
2023-05-10T23:01:54.193Z,12.65
2023-05-10T23:04:24.180Z,12.57
2023-05-10T23:06:53.870Z,12.54
2023-05-10T23:09:23.516Z,12.52
2023-05-10T23:11:53.324Z,12.54
2023-05-10T23:14:25.909Z,12.56
2023-05-10T23:16:55.661Z,12.57
2023-05-10T23:19:25.305Z,12.60
2023-05-10T23:21:55.167Z,12.62
2023-05-10T23:24:24.864Z,12.64
2023-05-10T23:26:54.846Z,12.66
2023-05-10T23:29:27.237Z,12.66
2023-05-10T23:31:57.026Z,12.67
2023-05-10T23:34:26.785Z,12.66
2023-05-10T23:36:56.615Z,12.66
2023-05-10T23:39:26.401Z,12.69
2023-05-10T23:41:56.052Z,12.69
2023-05-10T23:44:28.422Z,12.70
2023-05-10T23:46:58.170Z,12.68
2023-05-10T23:49:27.791Z,12.69
2023-05-10T23:51:57.472Z,12.68
2023-05-10T23:54:27.166Z,12.67
2023-05-10T23:56:57.003Z,12.67
2023-05-10T23:59:29.387Z,12.66
